Time;durP1;ratioP1;P1;durP2;ratioP2;P2;SDS_P1;SDS_P2;PMS_P1;PMS_P2;Temp;Humidity;BMP_temperature;BMP_pressure;BME280_temperature;BME280_humidity;BME280_pressure;Samples;Min_cycle;Max_cycle;Signal;HPM_P1;HPM_P2
2023/07/06 00:01:13;;;;;;;1.30;1.30;;;22.00;56.60;22.70;100811.00;;;;5009828;28;20582;-47
2023/07/06 00:03:39;;;;;;;1.60;1.50;;;22.00;56.60;22.70;100817.00;;;;5009111;28;20167;-48
2023/07/06 00:06:08;;;;;;;1.53;1.43;;;22.00;56.60;22.70;100809.00;;;;5008730;28;20215;-48
2023/07/06 00:08:37;;;;;;;1.60;1.50;;;22.00;56.60;22.70;100818.00;;;;5009170;28;20611;-48
2023/07/06 00:11:04;;;;;;;1.63;1.53;;;21.90;56.60;22.70;100831.00;;;;5009152;28;20191;-49
2023/07/06 00:13:31;;;;;;;1.57;1.47;;;21.90;56.60;22.70;100828.00;;;;5008774;28;20255;-49
2023/07/06 00:15:59;;;;;;;1.47;1.37;;;21.90;56.60;22.70;100825.00;;;;5008673;28;20179;-48
2023/07/06 00:18:25;;;;;;;1.03;1.03;;;21.90;56.60;22.70;100825.00;;;;5008872;28;20226;-48
2023/07/06 00:20:51;;;;;;;1.30;1.27;;;21.90;56.50;22.70;100828.00;;;;5008877;28;20176;-48
2023/07/06 00:23:17;;;;;;;1.23;1.23;;;21.90;56.60;22.70;100834.00;;;;5009025;28;20222;-48
2023/07/06 00:25:43;;;;;;;1.70;1.60;;;21.90;56.50;22.60;100837.00;;;;5008696;28;20250;-48
2023/07/06 00:28:09;;;;;;;1.47;1.37;;;21.90;56.60;22.60;100827.00;;;;5008738;28;20194;-48
2023/07/06 00:30:53;;;;;;;1.50;1.40;;;21.90;56.60;22.60;100828.00;;;;5008865;28;20269;-47
2023/07/06 00:33:20;;;;;;;1.30;1.30;;;21.90;56.60;22.60;100829.00;;;;5008659;28;20194;-47
2023/07/06 00:35:47;;;;;;;1.70;1.60;;;21.90;56.60;22.60;100830.00;;;;5008652;28;20179;-48
2023/07/06 00:38:16;;;;;;;1.30;1.30;;;21.90;56.60;22.60;100817.00;;;;5008657;28;20573;-49
2023/07/06 00:40:47;;;;;;;1.40;1.33;;;21.80;56.50;22.60;100821.00;;;;5008761;28;20521;-49
2023/07/06 00:43:18;;;;;;;1.30;1.30;;;21.80;56.60;22.60;100818.00;;;;5011096;28;20175;-48
2023/07/06 00:45:45;;;;;;;1.60;1.50;;;21.80;56.50;22.50;100825.00;;;;5017926;28;20203;-50
2023/07/06 00:48:33;;;;;;;1.37;1.30;;;21.80;56.60;22.60;100818.00;;;;4959360;28;20224;-48
2023/07/06 00:51:13;;;;;;;1.37;1.30;;;21.80;56.60;22.50;100812.00;;;;4998047;28;20183;-47
2023/07/06 00:53:41;;;;;;;1.20;1.20;;;21.80;56.60;22.50;100823.00;;;;4990567;28;20183;-47
2023/07/06 00:56:08;;;;;;;1.37;1.37;;;21.80;56.60;22.50;100818.00;;;;4990942;28;20238;-47
2023/07/06 00:58:43;;;;;;;1.60;1.50;;;21.80;56.60;22.50;100809.00;;;;5008534;28;20472;-48
2023/07/06 01:01:09;;;;;;;1.30;1.30;;;21.80;56.50;22.50;100819.00;;;;4976209;28;20588;-48
2023/07/06 01:03:44;;;;;;;1.23;1.23;;;21.80;56.60;22.50;100806.00;;;;4990904;28;20178;-49
2023/07/06 01:06:34;;;;;;;1.50;1.40;;;21.80;56.60;22.50;100814.00;;;;4961529;28;20232;-48
2023/07/06 01:09:00;;;;;;;1.10;1.10;;;21.80;56.60;22.50;100800.00;;;;4990946;28;20172;-48
2023/07/06 01:11:28;;;;;;;1.20;1.20;;;21.70;56.60;22.40;100811.00;;;;4958453;28;20172;-48
2023/07/06 01:13:54;;;;;;;1.20;1.10;;;21.70;56.60;22.40;100808.00;;;;4990861;28;20174;-47
2023/07/06 01:16:34;;;;;;;1.30;1.30;;;21.70;56.60;22.40;100819.00;;;;5011225;28;20279;-52
2023/07/06 01:19:41;;;;;;;1.20;1.20;;;21.80;56.60;22.40;100822.00;;;;5014384;28;20179;-49
2023/07/06 01:22:48;;;;;;;1.23;1.13;;;21.70;56.50;22.40;100816.00;;;;4995369;28;20270;-48
2023/07/06 01:25:57;;;;;;;1.20;1.20;;;21.70;56.50;22.40;100826.00;;;;4994738;28;20630;-47
2023/07/06 01:28:50;;;;;;;1.20;1.20;;;21.70;56.60;22.40;100823.00;;;;5012968;28;20201;-48
2023/07/06 01:31:25;;;;;;;1.30;1.30;;;21.70;56.50;22.30;100824.00;;;;5016025;28;20183;-48
2023/07/06 01:33:56;;;;;;;1.20;1.20;;;21.70;56.60;22.30;100816.00;;;;5032889;28;20159;-48
2023/07/06 01:36:39;;;;;;;1.20;1.20;;;21.70;56.60;22.30;100818.00;;;;4986889;28;20199;-48
2023/07/06 01:39:22;;;;;;;1.40;1.40;;;21.70;56.60;22.30;100821.00;;;;4963531;28;20292;-48
2023/07/06 01:42:17;;;;;;;1.50;1.40;;;21.70;56.60;22.30;100813.00;;;;5012026;28;20628;-49
2023/07/06 01:44:47;;;;;;;1.30;1.30;;;21.60;56.50;22.30;100819.00;;;;4970643;28;20275;-48
2023/07/06 01:47:17;;;;;;;1.30;1.30;;;21.70;56.60;22.30;100823.00;;;;4962714;28;20674;-47
2023/07/06 01:49:43;;;;;;;1.37;1.27;;;21.60;56.50;22.30;100821.00;;;;4986786;28;20210;-47
2023/07/06 01:52:27;;;;;;;1.20;1.20;;;21.60;56.50;22.30;100838.00;;;;4977589;28;20623;-48
2023/07/06 01:55:36;;;;;;;1.17;1.17;;;21.60;56.50;22.10;100839.00;;;;5011001;28;20191;-48
2023/07/06 01:58:23;;;;;;;1.40;1.30;;;21.60;56.40;22.30;100831.00;;;;4995015;28;20274;-48
2023/07/06 02:00:53;;;;;;;1.40;1.30;;;21.60;56.60;22.20;100836.00;;;;4994296;28;20167;-48
2023/07/06 02:03:18;;;;;;;1.47;1.37;;;21.60;56.50;22.20;100837.00;;;;4978137;28;20570;-48
2023/07/06 02:05:44;;;;;;;1.30;1.30;;;21.60;56.50;22.20;100834.00;;;;4993290;28;20178;-48
2023/07/06 02:08:10;;;;;;;1.30;1.30;;;21.60;56.50;22.20;100831.00;;;;5011171;28;20202;-48
2023/07/06 02:10:36;;;;;;;1.20;1.20;;;21.60;56.50;22.20;100833.00;;;;4961536;28;20180;-48
2023/07/06 02:13:03;;;;;;;1.30;1.30;;;21.60;56.50;22.20;100844.00;;;;5011372;28;20214;-48
2023/07/06 02:15:30;;;;;;;1.17;1.17;;;21.60;56.50;22.20;100834.00;;;;5011052;28;20184;-48
2023/07/06 02:17:56;;;;;;;1.53;1.43;;;21.50;56.40;22.20;100844.00;;;;5010933;28;20207;-48
2023/07/06 02:20:22;;;;;;;1.23;1.23;;;21.50;56.50;22.20;100835.00;;;;4993366;28;20222;-48
2023/07/06 02:22:49;;;;;;;1.17;1.17;;;21.50;56.50;22.20;100835.00;;;;4995712;28;20176;-48
2023/07/06 02:25:14;;;;;;;1.43;1.40;;;21.50;56.50;22.20;100830.00;;;;5017558;28;20172;-48
2023/07/06 02:27:40;;;;;;;1.30;1.30;;;21.50;56.50;22.20;100834.00;;;;5013320;28;20198;-48
2023/07/06 02:30:07;;;;;;;1.30;1.30;;;21.50;56.50;22.20;100832.00;;;;4993198;28;20171;-48
2023/07/06 02:32:33;;;;;;;1.50;1.40;;;21.50;56.50;22.10;100833.00;;;;5010916;28;20184;-48
2023/07/06 02:34:59;;;;;;;1.30;1.20;;;21.50;56.50;22.10;100830.00;;;;5010833;28;20215;-48
2023/07/06 02:37:25;;;;;;;1.50;1.40;;;21.40;56.40;22.10;100828.00;;;;5010422;28;20219;-48
2023/07/06 02:39:51;;;;;;;1.40;1.30;;;21.40;56.40;22.10;100835.00;;;;5010953;28;20649;-48
2023/07/06 02:42:17;;;;;;;1.27;1.23;;;21.40;56.40;22.10;100836.00;;;;5010664;28;20682;-47
2023/07/06 02:44:43;;;;;;;1.57;1.47;;;21.40;56.40;22.10;100831.00;;;;5010532;28;20175;-48
2023/07/06 02:47:10;;;;;;;1.97;1.23;;;21.40;56.40;22.10;100834.00;;;;5010821;28;20286;-48
2023/07/06 02:49:36;;;;;;;1.20;1.17;;;21.40;56.40;22.10;100843.00;;;;4992792;28;20676;-48
2023/07/06 02:52:02;;;;;;;1.60;1.50;;;21.40;56.40;22.10;100833.00;;;;5010124;28;20215;-48
2023/07/06 02:54:28;;;;;;;1.50;1.40;;;21.40;56.50;22.00;100846.00;;;;4992450;28;20225;-48
2023/07/06 02:56:55;;;;;;;1.63;1.50;;;21.40;56.50;22.00;100844.00;;;;5010042;28;20254;-47
2023/07/06 02:59:21;;;;;;;1.13;1.03;;;21.40;56.50;22.00;100845.00;;;;5009983;28;20187;-48
2023/07/06 03:01:47;;;;;;;1.50;1.40;;;21.30;56.50;22.00;100849.00;;;;5011074;28;20176;-47
2023/07/06 03:04:13;;;;;;;1.43;1.40;;;21.40;56.60;22.00;100852.00;;;;5012093;28;20255;-49
2023/07/06 03:06:39;;;;;;;1.57;1.40;;;21.30;56.50;22.00;100847.00;;;;5015080;28;20282;-48
2023/07/06 03:09:05;;;;;;;1.60;1.50;;;21.30;56.50;22.00;100855.00;;;;4994242;28;20180;-48
2023/07/06 03:11:32;;;;;;;1.20;1.20;;;21.30;56.50;22.00;100850.00;;;;5011041;28;20216;-48
2023/07/06 03:13:59;;;;;;;1.60;1.50;;;21.30;56.60;22.00;100856.00;;;;5010977;28;20176;-47
2023/07/06 03:16:26;;;;;;;1.70;1.60;;;21.30;56.60;21.90;100851.00;;;;5019249;28;20230;-48
2023/07/06 03:18:51;;;;;;;1.37;1.27;;;21.30;56.60;21.90;100853.00;;;;5027029;28;20648;-48
2023/07/06 03:21:17;;;;;;;1.40;1.30;;;21.30;56.50;21.90;100852.00;;;;5012931;28;20247;-48
2023/07/06 03:23:43;;;;;;;1.23;1.20;;;21.30;56.40;21.70;100854.00;;;;5012339;28;20174;-48
2023/07/06 03:26:09;;;;;;;1.20;1.20;;;21.30;56.50;21.90;100844.00;;;;5012093;28;20202;-48
2023/07/06 03:28:35;;;;;;;1.60;1.50;;;21.30;56.50;21.90;100854.00;;;;4995031;28;20756;-48
2023/07/06 03:31:01;;;;;;;1.60;1.50;;;21.30;56.50;21.90;100850.00;;;;5022217;28;20179;-48
2023/07/06 03:33:27;;;;;;;1.50;1.40;;;21.30;56.50;21.90;100853.00;;;;5023722;28;20175;-48
2023/07/06 03:35:53;;;;;;;1.60;1.50;;;21.30;56.50;21.90;100859.00;;;;4993678;28;20253;-49
2023/07/06 03:38:25;;;;;;;1.60;1.50;;;21.30;56.50;21.90;100865.00;;;;5010775;28;20298;-48
2023/07/06 03:40:51;;;;;;;1.47;1.37;;;21.20;56.40;21.90;100868.00;;;;5011169;28;20686;-48
2023/07/06 03:43:17;;;;;;;1.37;1.27;;;21.20;56.40;21.60;100867.00;;;;4993413;28;20250;-48
2023/07/06 03:45:46;;;;;;;1.40;1.30;;;21.20;56.40;21.80;100865.00;;;;5010264;28;20674;-48
2023/07/06 03:48:12;;;;;;;1.43;1.33;;;21.20;56.40;21.90;100876.00;;;;4993117;28;20278;-48
2023/07/06 03:50:38;;;;;;;1.40;1.30;;;21.20;56.40;21.80;100863.00;;;;5010592;28;20209;-47
2023/07/06 03:53:04;;;;;;;1.50;1.40;;;21.20;56.40;21.80;100867.00;;;;5010508;28;20218;-48
2023/07/06 03:55:30;;;;;;;1.30;1.30;;;21.20;56.40;21.80;100864.00;;;;5010300;28;20193;-48
2023/07/06 03:58:00;;;;;;;1.30;1.30;;;21.20;56.50;21.80;100870.00;;;;5010203;28;20211;-48
2023/07/06 04:00:26;;;;;;;1.40;1.40;;;21.20;56.50;21.80;100868.00;;;;5010045;28;20653;-48
2023/07/06 04:02:54;;;;;;;1.40;1.40;;;21.20;56.50;21.80;100871.00;;;;4993083;28;20182;-48
2023/07/06 04:05:31;;;;;;;1.60;1.50;;;21.20;56.40;21.80;100880.00;;;;4992475;28;20186;-48
2023/07/06 04:07:57;;;;;;;1.40;1.30;;;21.20;56.40;21.80;100864.00;;;;5010623;28;20207;-47
2023/07/06 04:10:22;;;;;;;1.63;1.53;;;21.20;56.30;21.80;100883.00;;;;5010579;28;20659;-47
2023/07/06 04:12:49;;;;;;;1.40;1.30;;;21.20;56.30;21.80;100876.00;;;;5010074;28;20176;-48
2023/07/06 04:15:18;;;;;;;1.60;1.50;;;21.20;56.40;21.80;100877.00;;;;5010002;28;20191;-47
2023/07/06 04:17:47;;;;;;;1.50;1.40;;;21.10;56.30;21.80;100876.00;;;;5010041;28;20213;-48
2023/07/06 04:20:26;;;;;;;1.60;1.50;;;21.10;56.30;21.70;100880.00;;;;5010180;28;20673;-48
2023/07/06 04:22:57;;;;;;;1.50;1.40;;;21.10;56.40;21.70;100878.00;;;;5010310;28;20181;-48
2023/07/06 04:25:29;;;;;;;1.50;1.40;;;21.10;56.30;21.70;100881.00;;;;4994363;28;20732;-49
2023/07/06 04:28:05;;;;;;;1.33;1.33;;;21.10;56.30;21.70;100881.00;;;;5012375;28;20219;-47
2023/07/06 04:30:35;;;;;;;1.57;1.47;;;21.10;56.30;21.70;100883.00;;;;5011596;28;20225;-48
2023/07/06 04:33:03;;;;;;;1.27;1.27;;;21.10;56.30;21.70;100884.00;;;;4994386;28;20442;-48
2023/07/06 04:35:29;;;;;;;1.40;1.33;;;21.10;56.30;21.70;100882.00;;;;5010476;28;20187;-48
2023/07/06 04:37:55;;;;;;;1.20;1.20;;;21.10;56.20;21.70;100890.00;;;;5010189;28;20269;-47
2023/07/06 04:40:21;;;;;;;1.50;1.40;;;21.10;56.20;21.70;100892.00;;;;5010314;28;20447;-48
2023/07/06 04:42:50;;;;;;;1.27;1.17;;;21.10;56.20;21.70;100888.00;;;;5009936;28;20211;-48
2023/07/06 04:45:17;;;;;;;1.53;1.37;;;21.10;56.20;21.70;100892.00;;;;5009848;28;20175;-48
2023/07/06 04:47:44;;;;;;;1.40;1.33;;;21.10;56.20;21.70;100885.00;;;;5009453;28;20257;-48
2023/07/06 04:50:12;;;;;;;1.53;1.43;;;21.10;56.20;21.70;100888.00;;;;5011778;28;20553;-47
2023/07/06 04:52:38;;;;;;;1.37;1.37;;;21.10;56.20;21.70;100899.00;;;;5013970;28;20180;-47
2023/07/06 04:55:11;;;;;;;1.67;1.40;;;21.10;56.20;21.70;100898.00;;;;5013379;28;20241;-48
2023/07/06 04:57:37;;;;;;;2.87;1.60;;;21.10;56.20;21.70;100906.00;;;;4980555;28;20211;-47
2023/07/06 05:00:18;;;;;;;4.73;1.70;;;21.10;56.20;21.60;100894.00;;;;5013801;28;20199;-47
2023/07/06 05:02:46;;;;;;;1.60;1.50;;;21.00;56.20;21.60;100913.00;;;;5013754;28;20174;-48
2023/07/06 05:05:16;;;;;;;2.83;1.20;;;21.00;56.20;21.60;100907.00;;;;5013752;28;20220;-49
2023/07/06 05:07:42;;;;;;;2.63;1.50;;;21.10;56.30;21.60;100903.00;;;;5013822;28;20208;-48
2023/07/06 05:10:08;;;;;;;3.87;1.60;;;21.00;56.20;21.60;100910.00;;;;5013447;28;20222;-48
2023/07/06 05:12:35;;;;;;;2.37;1.60;;;21.10;56.20;21.60;100911.00;;;;5013589;28;20600;-47
2023/07/06 05:15:02;;;;;;;5.07;1.50;;;21.00;56.10;21.60;100914.00;;;;5026023;28;20212;-48
2023/07/06 05:17:28;;;;;;;1.63;1.53;;;21.00;56.20;21.60;100911.00;;;;5023620;28;20285;-48
2023/07/06 05:19:54;;;;;;;4.97;1.53;;;21.00;56.20;21.60;100909.00;;;;5013605;28;20799;-48
2023/07/06 05:22:19;;;;;;;2.23;1.67;;;21.00;56.20;21.60;100907.00;;;;5013693;28;20258;-48
2023/07/06 05:24:45;;;;;;;3.40;1.70;;;21.00;56.20;21.60;100920.00;;;;4996331;28;20199;-48
2023/07/06 05:27:11;;;;;;;1.77;1.40;;;21.00;56.20;21.60;100908.00;;;;5014626;28;20262;-49
2023/07/06 05:29:37;;;;;;;2.57;1.60;;;21.00;56.20;21.60;100905.00;;;;5024405;28;20707;-47
2023/07/06 05:32:03;;;;;;;2.30;1.60;;;21.00;56.20;21.60;100902.00;;;;5025348;28;20193;-48
2023/07/06 05:34:29;;;;;;;1.57;1.47;;;21.00;56.20;21.60;100903.00;;;;5013768;28;20183;-48
2023/07/06 05:36:55;;;;;;;2.03;1.60;;;21.00;56.20;21.60;100905.00;;;;5013209;28;20586;-48
2023/07/06 05:39:21;;;;;;;2.60;1.30;;;20.90;56.20;21.60;100906.00;;;;5015316;28;20254;-51
2023/07/06 05:41:47;;;;;;;1.43;1.33;;;20.90;56.20;21.60;100914.00;;;;5019684;28;20792;-49
2023/07/06 05:44:13;;;;;;;1.70;1.40;;;20.90;56.20;21.50;100914.00;;;;4998571;28;20182;-47
2023/07/06 05:46:39;;;;;;;2.13;1.67;;;20.90;56.20;21.50;100915.00;;;;5012773;28;20709;-47
2023/07/06 05:49:05;;;;;;;1.80;1.70;;;20.90;56.20;21.50;100918.00;;;;5012756;28;20696;-47
2023/07/06 05:51:31;;;;;;;1.70;1.50;;;20.90;56.20;21.50;100919.00;;;;5012431;28;20214;-47
2023/07/06 05:53:57;;;;;;;2.07;1.50;;;20.90;56.30;21.50;100922.00;;;;5012472;28;20262;-48
2023/07/06 05:56:23;;;;;;;3.53;1.67;;;20.90;56.30;21.50;100920.00;;;;5012477;28;20207;-48
2023/07/06 05:58:49;;;;;;;1.70;1.40;;;20.90;56.40;21.50;100921.00;;;;5012577;28;20187;-48
2023/07/06 06:01:17;;;;;;;3.93;1.77;;;20.90;56.40;21.50;100931.00;;;;5012498;28;20186;-47
2023/07/06 06:03:43;;;;;;;1.83;1.30;;;20.90;56.40;21.50;100931.00;;;;5013064;28;20245;-47
2023/07/06 06:06:10;;;;;;;1.37;1.27;;;20.90;56.40;21.50;100934.00;;;;5012303;28;20192;-47
2023/07/06 06:08:37;;;;;;;1.73;1.47;;;20.90;56.40;21.50;100944.00;;;;5011414;28;20183;-48
2023/07/06 06:11:03;;;;;;;1.57;1.33;;;20.90;56.40;21.50;100934.00;;;;5012418;28;20274;-48
2023/07/06 06:13:30;;;;;;;2.23;1.43;;;20.90;56.50;21.50;100941.00;;;;5012592;28;20563;-48
2023/07/06 06:15:57;;;;;;;2.60;1.50;;;20.80;56.50;21.50;100937.00;;;;4995245;28;20269;-48
2023/07/06 06:18:25;;;;;;;2.33;1.57;;;20.80;56.60;21.50;100940.00;;;;5012684;28;20218;-49
2023/07/06 06:20:51;;;;;;;1.40;1.33;;;20.80;56.60;21.40;100945.00;;;;5012406;28;20188;-48
2023/07/06 06:23:20;;;;;;;1.50;1.40;;;20.80;56.60;21.40;100944.00;;;;5012102;28;20186;-48
2023/07/06 06:25:46;;;;;;;1.67;1.57;;;20.80;56.70;21.40;100938.00;;;;5011894;28;20218;-47
2023/07/06 06:28:12;;;;;;;1.40;1.30;;;20.80;56.70;21.40;100952.00;;;;5011535;28;20628;-47
2023/07/06 06:30:40;;;;;;;1.90;1.57;;;20.80;56.70;21.40;100953.00;;;;5010845;28;20172;-48
2023/07/06 06:33:06;;;;;;;1.60;1.50;;;20.80;56.70;21.40;100955.00;;;;5010737;28;20222;-47
2023/07/06 06:35:33;;;;;;;1.30;1.30;;;20.80;56.70;21.40;100948.00;;;;5010636;28;20191;-47
2023/07/06 06:37:59;;;;;;;5.27;1.33;;;20.80;56.70;21.40;100955.00;;;;5010620;28;20298;-47
2023/07/06 06:40:25;;;;;;;1.90;1.50;;;20.80;56.80;21.40;100959.00;;;;5010695;28;20271;-47
2023/07/06 06:42:51;;;;;;;1.60;1.50;;;20.80;56.90;21.40;100953.00;;;;4993309;28;20242;-47
2023/07/06 06:45:18;;;;;;;2.87;1.67;;;20.80;57.10;21.40;100957.00;;;;5010578;28;20262;-47
2023/07/06 06:47:44;;;;;;;1.63;1.50;;;20.80;57.20;21.40;100957.00;;;;5010542;28;20768;-47
2023/07/06 06:50:13;;;;;;;1.63;1.53;;;20.80;57.30;21.40;100960.00;;;;5010880;28;20262;-47
2023/07/06 06:52:40;;;;;;;2.33;1.70;;;20.80;57.40;21.40;100963.00;;;;5010962;28;20405;-48
2023/07/06 06:55:07;;;;;;;1.93;1.57;;;20.80;57.40;21.40;100957.00;;;;5010686;28;20657;-47
2023/07/06 06:57:33;;;;;;;2.80;1.70;;;20.80;57.40;21.40;100962.00;;;;5010449;28;20283;-48
2023/07/06 06:59:59;;;;;;;3.27;1.80;;;20.80;57.40;21.40;100960.00;;;;5010562;28;20541;-47
2023/07/06 07:02:25;;;;;;;1.83;1.60;;;20.80;57.40;21.40;100967.00;;;;5010555;28;20290;-47
2023/07/06 07:04:52;;;;;;;2.87;1.77;;;20.70;57.40;21.40;100967.00;;;;5010392;28;20218;-48
2023/07/06 07:07:17;;;;;;;3.33;1.73;;;20.80;57.50;21.40;100978.00;;;;5010573;28;20583;-47
2023/07/06 07:09:46;;;;;;;1.77;1.67;;;20.80;57.50;21.40;100978.00;;;;5012334;28;20201;-48
2023/07/06 07:12:12;;;;;;;2.13;1.70;;;20.70;57.50;21.40;100970.00;;;;5026478;28;20168;-48
2023/07/06 07:14:38;;;;;;;2.00;1.80;;;20.80;57.50;21.40;100976.00;;;;5010872;28;20216;-49
2023/07/06 07:17:07;;;;;;;1.67;1.57;;;20.80;57.60;21.40;100978.00;;;;5011186;28;20214;-47
2023/07/06 07:19:34;;;;;;;1.83;1.70;;;20.80;57.60;21.40;100980.00;;;;5011656;28;20712;-48
2023/07/06 07:22:00;;;;;;;2.17;1.60;;;20.80;57.60;21.40;100979.00;;;;5011698;28;20559;-48
2023/07/06 07:24:29;;;;;;;1.57;1.47;;;20.80;57.60;21.40;100989.00;;;;5017709;28;20191;-52
2023/07/06 07:26:57;;;;;;;1.80;1.70;;;20.80;57.60;21.40;100980.00;;;;5024433;28;20195;-48
2023/07/06 07:29:23;;;;;;;1.70;1.50;;;20.80;57.70;21.40;100983.00;;;;4975427;28;1036270;-48
2023/07/06 07:31:50;;;;;;;1.90;1.80;;;20.80;57.80;21.40;100989.00;;;;5010732;28;20561;-47
2023/07/06 07:34:17;;;;;;;1.90;1.70;;;20.80;57.80;21.40;100991.00;;;;5010695;28;20167;-48
2023/07/06 07:36:43;;;;;;;1.63;1.53;;;20.80;57.80;21.40;100991.00;;;;5010528;28;20207;-47
2023/07/06 07:39:09;;;;;;;2.77;2.00;;;20.80;57.80;21.40;100985.00;;;;5010668;28;20191;-47
2023/07/06 07:41:35;;;;;;;1.70;1.60;;;20.80;57.80;21.40;100984.00;;;;5010663;28;20178;-48
2023/07/06 07:44:01;;;;;;;2.70;1.80;;;20.80;57.80;21.40;100993.00;;;;5010444;28;20170;-47
2023/07/06 07:46:29;;;;;;;1.87;1.73;;;20.80;57.80;21.40;100992.00;;;;5011269;28;20202;-47
2023/07/06 07:48:55;;;;;;;1.60;1.50;;;20.80;57.80;21.40;100986.00;;;;5011548;28;20172;-48
2023/07/06 07:51:24;;;;;;;2.57;1.70;;;20.80;57.90;21.40;100984.00;;;;5010391;28;20182;-47
2023/07/06 07:53:52;;;;;;;1.93;1.77;;;20.80;58.00;21.40;100985.00;;;;5010494;28;20646;-47
2023/07/06 07:56:18;;;;;;;2.13;1.80;;;20.80;58.00;21.40;100991.00;;;;5010744;28;20196;-47
2023/07/06 07:58:48;;;;;;;3.17;2.00;;;20.80;58.00;21.40;100989.00;;;;5010573;28;20259;-48
2023/07/06 08:01:16;;;;;;;2.00;1.80;;;20.80;58.10;21.40;100995.00;;;;5010608;28;20696;-48
2023/07/06 08:03:42;;;;;;;1.90;1.70;;;20.80;58.10;21.40;100990.00;;;;5010571;28;20180;-47
2023/07/06 08:06:10;;;;;;;2.17;1.90;;;20.80;58.20;21.50;100992.00;;;;5010056;28;20187;-49
2023/07/06 08:08:37;;;;;;;2.00;1.80;;;20.80;58.20;21.50;100986.00;;;;5010442;28;20221;-48
2023/07/06 08:11:10;;;;;;;2.10;1.90;;;20.80;58.20;21.40;100998.00;;;;5010268;28;20178;-47
2023/07/06 08:13:36;;;;;;;1.93;1.70;;;20.80;58.20;21.50;100999.00;;;;5010145;28;20336;-48
2023/07/06 08:16:02;;;;;;;2.10;1.70;;;20.80;58.30;21.50;100990.00;;;;5010157;28;20191;-49
2023/07/06 08:18:28;;;;;;;1.77;1.67;;;20.90;58.40;21.50;100996.00;;;;5010052;28;20217;-49
2023/07/06 08:20:54;;;;;;;1.80;1.60;;;20.80;58.40;21.50;100990.00;;;;5010495;28;20520;-47
2023/07/06 08:23:22;;;;;;;1.67;1.57;;;20.80;58.40;21.50;100987.00;;;;5010220;28;20177;-48
2023/07/06 08:25:51;;;;;;;1.90;1.80;;;20.80;58.50;21.50;100991.00;;;;5009113;28;20183;-48
2023/07/06 08:28:20;;;;;;;2.33;1.90;;;20.90;58.70;21.50;101006.00;;;;5010101;28;20547;-48
2023/07/06 08:30:46;;;;;;;1.93;1.73;;;20.80;58.60;21.50;101008.00;;;;5010463;28;20168;-48
2023/07/06 08:33:12;;;;;;;2.00;1.80;;;20.80;58.60;21.50;100999.00;;;;5010147;28;20550;-48
2023/07/06 08:35:44;;;;;;;2.00;1.80;;;20.90;58.70;21.50;101000.00;;;;5010078;28;20187;-47
2023/07/06 08:38:13;;;;;;;2.00;1.80;;;20.90;58.80;21.50;101003.00;;;;5009943;28;20215;-47
2023/07/06 08:40:40;;;;;;;1.80;1.70;;;20.80;58.80;21.50;101008.00;;;;5009819;28;20172;-48
2023/07/06 08:43:19;;;;;;;2.43;1.93;;;20.90;59.00;21.50;101006.00;;;;4976113;28;20175;-47
2023/07/06 08:45:46;;;;;;;2.83;1.80;;;20.90;59.10;21.50;101003.00;;;;4992122;28;20182;-47
2023/07/06 08:48:17;;;;;;;2.00;1.90;;;20.90;59.10;21.50;101009.00;;;;4976257;28;20182;-47
2023/07/06 08:50:51;;;;;;;2.13;1.80;;;20.90;59.20;21.50;101007.00;;;;4985120;28;20661;-47
2023/07/06 08:53:18;;;;;;;2.27;1.80;;;20.90;59.20;21.50;101006.00;;;;5009766;28;20185;-48
2023/07/06 08:55:44;;;;;;;1.80;1.70;;;20.90;59.30;21.50;100996.00;;;;5011606;28;20708;-48
2023/07/06 08:58:20;;;;;;;2.07;1.60;;;20.90;59.40;21.50;101007.00;;;;4980209;28;20263;-48
2023/07/06 09:00:46;;;;;;;1.80;1.70;;;20.90;59.50;21.50;101008.00;;;;4964941;28;20190;-47
2023/07/06 09:03:12;;;;;;;1.90;1.80;;;20.80;59.50;21.60;101013.00;;;;5009692;28;20569;-47
2023/07/06 09:05:41;;;;;;;1.90;1.70;;;20.90;59.60;21.60;101008.00;;;;5009596;28;20187;-47
2023/07/06 09:08:10;;;;;;;2.13;1.70;;;20.90;59.60;21.60;101015.00;;;;4982982;28;20194;-48
2023/07/06 09:10:37;;;;;;;2.80;1.90;;;20.90;59.80;21.60;101015.00;;;;5002409;28;20285;-47
2023/07/06 09:13:26;;;;;;;1.77;1.67;;;20.80;59.90;21.60;101017.00;;;;5010053;28;20535;-55
2023/07/06 09:16:03;;;;;;;1.73;1.63;;;20.80;60.00;21.60;101015.00;;;;5009853;28;20195;-47
2023/07/06 09:18:31;;;;;;;1.70;1.60;;;20.90;60.10;21.60;101011.00;;;;5010626;28;20212;-47
2023/07/06 09:20:58;;;;;;;1.73;1.63;;;20.90;60.10;21.60;100998.00;;;;5010967;28;20200;-47
2023/07/06 09:23:27;;;;;;;1.80;1.70;;;20.90;60.30;21.60;101007.00;;;;5006246;28;20199;-48
2023/07/06 09:25:54;;;;;;;1.87;1.77;;;20.80;60.60;21.60;100997.00;;;;4996585;28;20637;-48
2023/07/06 09:28:23;;;;;;;2.13;1.97;;;20.90;60.60;21.60;100998.00;;;;5008025;28;20188;-47
2023/07/06 09:30:50;;;;;;;2.00;1.90;;;20.80;60.90;21.60;101002.00;;;;5009360;28;20182;-48
2023/07/06 09:33:24;;;;;;;1.83;1.60;;;20.90;61.10;21.60;101007.00;;;;4991776;28;20183;-48
2023/07/06 09:35:52;;;;;;;2.30;2.00;;;20.90;61.30;21.60;101010.00;;;;5010212;28;20270;-48
2023/07/06 09:38:18;;;;;;;1.93;1.80;;;20.90;61.30;21.60;101006.00;;;;5012844;28;20209;-47
2023/07/06 09:40:45;;;;;;;1.80;1.70;;;20.90;61.50;21.60;101010.00;;;;4995668;28;20657;-47
2023/07/06 09:43:20;;;;;;;2.10;1.90;;;20.90;61.70;21.60;101009.00;;;;5013039;28;20589;-48
2023/07/06 09:45:48;;;;;;;1.47;1.40;;;20.90;61.80;21.60;101002.00;;;;5012453;28;20276;-46
2023/07/06 09:48:37;;;;;;;2.07;1.87;;;20.90;61.80;21.60;101008.00;;;;4995763;28;20182;-47
2023/07/06 09:51:24;;;;;;;2.17;1.97;;;20.90;61.80;21.60;101000.00;;;;5012661;28;20777;-47
2023/07/06 09:54:03;;;;;;;2.00;1.80;;;20.90;61.90;21.60;101004.00;;;;4979103;28;20194;-48
2023/07/06 09:56:29;;;;;;;1.80;1.70;;;20.90;62.10;21.60;100995.00;;;;4994969;28;20338;-47
2023/07/06 09:58:57;;;;;;;2.13;1.77;;;20.90;62.30;21.60;100997.00;;;;5012728;28;20179;-47
2023/07/06 10:01:31;;;;;;;2.33;1.90;;;20.90;62.20;21.60;101004.00;;;;4962965;28;20183;-47
2023/07/06 10:04:34;;;;;;;1.90;1.70;;;21.00;62.40;21.60;101011.00;;;;4994696;28;20171;-47
2023/07/06 10:07:44;;;;;;;2.03;1.73;;;21.00;62.30;21.60;101000.00;;;;5012575;28;20664;-48
2023/07/06 10:10:35;;;;;;;2.23;1.70;;;21.00;62.40;21.60;100990.00;;;;4979755;28;20181;-47
2023/07/06 10:13:40;;;;;;;1.80;1.70;;;21.00;62.40;21.70;101002.00;;;;4997140;28;20274;-48
2023/07/06 10:16:42;;;;;;;2.00;1.80;;;21.00;62.70;21.70;101010.00;;;;4984035;28;20226;-48
2023/07/06 10:19:34;;;;;;;1.80;1.70;;;21.00;62.60;21.60;101014.00;;;;4995068;28;20274;-47
2023/07/06 10:22:43;;;;;;;1.93;1.77;;;21.00;62.70;21.70;101017.00;;;;4995748;28;20182;-47
2023/07/06 10:25:35;;;;;;;2.13;1.70;;;21.10;62.80;21.70;101010.00;;;;4956977;28;20191;-47
2023/07/06 10:28:14;;;;;;;2.40;1.80;;;21.10;62.90;21.70;100999.00;;;;4992052;28;20372;-47
2023/07/06 10:30:46;;;;;;;2.30;1.90;;;21.10;63.00;21.70;101000.00;;;;5012259;28;20175;-48
2023/07/06 10:33:25;;;;;;;1.87;1.70;;;21.10;62.90;21.70;100988.00;;;;4994390;28;20237;-48
2023/07/06 10:35:52;;;;;;;1.60;1.50;;;21.10;63.00;21.70;100981.00;;;;4978861;28;20571;-48
2023/07/06 10:38:18;;;;;;;1.70;1.60;;;21.10;63.00;21.80;101004.00;;;;4994234;28;20260;-47
2023/07/06 10:40:50;;;;;;;1.70;1.60;;;21.10;63.00;21.80;100995.00;;;;5012547;28;20211;-49
2023/07/06 10:43:16;;;;;;;2.00;1.80;;;21.20;63.10;21.80;100997.00;;;;5014493;28;20201;-48
2023/07/06 10:45:48;;;;;;;1.97;1.77;;;21.20;63.20;21.80;100997.00;;;;5011789;28;20176;-48
2023/07/06 10:48:34;;;;;;;1.70;1.60;;;21.20;63.10;21.80;100999.00;;;;5010762;28;20185;-48
2023/07/06 10:51:45;;;;;;;1.83;1.70;;;21.20;63.10;21.90;101012.00;;;;5012243;28;20462;-47
2023/07/06 10:54:25;;;;;;;1.70;1.60;;;21.20;63.20;21.90;101008.00;;;;4970055;28;20189;-47
2023/07/06 10:57:05;;;;;;;1.70;1.60;;;21.20;63.20;21.90;101000.00;;;;4993114;28;20223;-47
2023/07/06 10:59:45;;;;;;;1.67;1.57;;;21.20;63.20;21.90;101008.00;;;;4994137;28;20175;-48
2023/07/06 11:02:40;;;;;;;1.77;1.60;;;21.30;63.20;21.90;101014.00;;;;4994437;28;20175;-50